Time;durP1;ratioP1;P1;durP2;ratioP2;P2;SDS_P1;SDS_P2;PMS_P1;PMS_P2;Temp;Humidity;BMP_temperature;BMP_pressure;BME280_temperature;BME280_humidity;BME280_pressure;Samples;Min_cycle;Max_cycle;Signal;HPM_P1;HPM_P2
2023/10/13 00:00:29;;;;;;;17.35;9.50;;;15.10;99.90;;;;;;5064860;28;20128;-64
2023/10/13 00:03:01;;;;;;;12.35;9.02;;;15.20;99.90;;;;;;5062889;28;20070;-64
2023/10/13 00:05:30;;;;;;;15.07;10.00;;;15.20;99.90;;;;;;5063598;28;20381;-64
2023/10/13 00:08:00;;;;;;;11.98;9.23;;;15.20;99.90;;;;;;5060485;28;20045;-63
2023/10/13 00:10:27;;;;;;;13.02;9.18;;;15.20;99.90;;;;;;5061210;28;20120;-63
2023/10/13 00:12:53;;;;;;;14.52;10.02;;;15.20;99.90;;;;;;5058998;28;20043;-63
2023/10/13 00:15:27;;;;;;;;;;;15.20;99.90;;;;;;5064063;28;20036;-63
2023/10/13 00:17:55;;;;;;;16.65;9.18;;;15.30;99.90;;;;;;5052352;28;19916;-63
2023/10/13 00:20:37;;;;;;;12.38;7.70;;;15.20;99.90;;;;;;5049787;28;20052;-63
2023/10/13 00:23:05;;;;;;;15.55;8.85;;;15.20;99.90;;;;;;5047338;28;20119;-64
2023/10/13 00:25:43;;;;;;;14.43;7.95;;;15.20;99.90;;;;;;5049663;28;20044;-63
2023/10/13 00:28:09;;;;;;;11.05;7.07;;;15.20;99.90;;;;;;5046250;28;20472;-64
2023/10/13 00:30:35;;;;;;;17.42;8.32;;;15.20;99.90;;;;;;5049233;28;20133;-62
2023/10/13 00:33:00;;;;;;;;;;;15.30;99.90;;;;;;5049171;28;20155;-64
2023/10/13 00:35:37;;;;;;;11.02;5.90;;;15.20;99.90;;;;;;5054920;28;19920;-63
2023/10/13 00:38:07;;;;;;;9.07;5.93;;;15.30;99.90;;;;;;5046438;28;20059;-63
2023/10/13 00:45:44;;;;;;;11.50;6.32;;;15.30;99.90;;;;;;5049503;28;19924;-64
2023/10/13 00:48:12;;;;;;;14.30;6.47;;;15.30;99.90;;;;;;5042743;28;20112;-62
2023/10/13 00:50:38;;;;;;;11.23;6.10;;;15.30;99.90;;;;;;5049723;28;20557;-62
2023/10/13 00:53:04;;;;;;;;;;;15.30;99.90;;;;;;5048572;28;20037;-63
2023/10/13 00:55:33;;;;;;;9.88;5.82;;;15.30;99.90;;;;;;5049734;28;19939;-63
2023/10/13 00:58:03;;;;;;;10.65;6.50;;;15.40;99.90;;;;;;5046380;28;20045;-62
2023/10/13 01:00:32;;;;;;;10.05;5.90;;;15.30;99.90;;;;;;5046447;28;20112;-62
2023/10/13 01:03:06;;;;;;;9.52;5.30;;;15.40;99.90;;;;;;5047717;28;20385;-61
2023/10/13 01:05:33;;;;;;;8.23;5.68;;;15.40;99.90;;;;;;5049264;28;20095;-62
2023/10/13 01:08:03;;;;;;;14.00;5.75;;;15.40;99.90;;;;;;5047961;28;20520;-62
2023/10/13 01:10:32;;;;;;;13.20;6.20;;;15.40;99.90;;;;;;5051457;28;20462;-62
2023/10/13 01:13:02;;;;;;;7.35;5.13;;;15.40;99.90;;;;;;5046192;28;20037;-61
2023/10/13 01:15:30;;;;;;;8.75;5.53;;;15.50;99.90;;;;;;5049351;28;20041;-64
2023/10/13 01:18:16;;;;;;;12.82;5.18;;;15.40;99.90;;;;;;5045504;28;20608;-64
2023/10/13 01:20:45;;;;;;;12.93;5.70;;;15.50;99.90;;;;;;5049149;28;20060;-63
2023/10/13 01:23:18;;;;;;;7.43;4.70;;;15.40;99.90;;;;;;5045225;28;20040;-62
2023/10/13 01:25:45;;;;;;;11.65;6.18;;;15.40;99.90;;;;;;5047842;28;20047;-63
2023/10/13 01:28:16;;;;;;;9.50;5.90;;;15.40;99.90;;;;;;5045822;28;20044;-63
2023/10/13 01:30:42;;;;;;;11.60;5.97;;;15.40;99.90;;;;;;5047338;28;20041;-62
2023/10/13 01:33:10;;;;;;;8.43;5.30;;;15.40;99.90;;;;;;5045144;28;20041;-62
2023/10/13 01:35:47;;;;;;;11.77;5.28;;;15.40;99.90;;;;;;5049112;28;20135;-62
2023/10/13 01:38:14;;;;;;;11.48;5.70;;;15.40;99.90;;;;;;5047796;28;20056;-63
2023/10/13 01:40:39;;;;;;;9.23;5.35;;;15.40;99.90;;;;;;5049000;28;20044;-62
2023/10/13 01:43:10;;;;;;;;;;;15.40;99.90;;;;;;5047948;28;20031;-62
2023/10/13 01:45:39;;;;;;;13.40;4.72;;;15.50;99.90;;;;;;5048709;28;19924;-61
2023/10/13 01:48:04;;;;;;;12.55;4.90;;;15.50;99.90;;;;;;5046295;28;20098;-62
2023/10/13 01:50:30;;;;;;;;;;;15.50;99.90;;;;;;5049362;28;20048;-61
2023/10/13 01:53:11;;;;;;;8.75;4.57;;;15.50;99.90;;;;;;5046213;28;20395;-62
2023/10/13 01:55:43;;;;;;;9.82;4.22;;;15.50;99.90;;;;;;5048368;28;20037;-62
2023/10/13 01:58:16;;;;;;;12.18;4.43;;;15.50;99.90;;;;;;5044410;28;20048;-61
2023/10/13 02:00:43;;;;;;;15.65;5.53;;;15.50;99.90;;;;;;5045953;28;20920;-62
2023/10/13 02:03:16;;;;;;;10.55;4.43;;;15.50;99.90;;;;;;5044949;28;20083;-62
2023/10/13 02:05:48;;;;;;;9.45;4.30;;;15.40;99.90;;;;;;5048004;28;20107;-62
2023/10/13 02:08:22;;;;;;;10.15;4.20;;;15.40;99.90;;;;;;5048640;28;20451;-62
2023/10/13 02:10:49;;;;;;;9.95;4.05;;;15.40;99.90;;;;;;5047808;28;20562;-63
2023/10/13 02:13:17;;;;;;;10.77;4.45;;;15.40;99.90;;;;;;5044729;28;20091;-64
2023/10/13 02:15:44;;;;;;;9.07;4.57;;;15.40;99.90;;;;;;5047998;28;20129;-63
2023/10/13 02:19:04;;;;;;;13.40;4.68;;;15.40;99.90;;;;;;5042400;28;20093;-63
2023/10/13 02:21:04;;;;;;;9.60;4.45;;;15.40;99.90;;;;;;5039872;28;20083;-64
2023/10/13 02:23:30;;;;;;;8.73;4.43;;;15.40;99.90;;;;;;5049714;28;20048;-63
2023/10/13 02:26:12;;;;;;;10.63;5.32;;;15.40;99.90;;;;;;5048341;28;20049;-64
2023/10/13 02:28:38;;;;;;;10.20;4.70;;;15.50;99.90;;;;;;5046737;28;20049;-64
2023/10/13 02:31:06;;;;;;;9.07;4.25;;;15.50;99.90;;;;;;5045639;28;20045;-64
2023/10/13 02:33:36;;;;;;;9.95;4.43;;;15.60;99.90;;;;;;5045925;28;20037;-63
2023/10/13 02:36:07;;;;;;;9.65;4.55;;;15.60;99.90;;;;;;5046674;28;20802;-65
2023/10/13 02:41:20;;;;;;;14.20;4.47;;;15.60;99.90;;;;;;5049444;28;20052;-64
2023/10/13 02:43:46;;;;;;;7.28;4.43;;;15.50;99.90;;;;;;5047808;28;20033;-64
2023/10/13 02:46:14;;;;;;;;;;;15.50;99.90;;;;;;5044996;28;20405;-63
2023/10/13 02:48:40;;;;;;;13.80;4.63;;;15.50;99.90;;;;;;5046094;28;19924;-64
2023/10/13 02:51:15;;;;;;;;;;;15.50;99.90;;;;;;5045584;28;20041;-64
2023/10/13 02:53:42;;;;;;;6.65;3.78;;;15.50;99.90;;;;;;5047260;28;19920;-64
2023/10/13 02:56:08;;;;;;;7.30;4.43;;;15.60;99.90;;;;;;5045892;28;20037;-63
2023/10/13 02:58:39;;;;;;;;;;;15.60;99.90;;;;;;5046048;28;20052;-63
2023/10/13 03:01:16;;;;;;;8.63;4.05;;;15.60;99.90;;;;;;5048338;28;19921;-63
2023/10/13 03:03:50;;;;;;;8.95;4.50;;;15.60;99.90;;;;;;5047048;28;20064;-63
2023/10/13 03:06:17;;;;;;;8.23;4.63;;;15.60;99.90;;;;;;5044260;28;20064;-64
2023/10/13 03:08:43;;;;;;;9.85;4.93;;;15.60;99.90;;;;;;5045579;28;20037;-63
2023/10/13 03:11:09;;;;;;;;;;;15.60;99.90;;;;;;5042865;28;20045;-62
2023/10/13 03:13:36;;;;;;;9.10;5.07;;;15.60;99.90;;;;;;5046115;28;19974;-62
2023/10/13 03:16:11;;;;;;;13.55;5.30;;;15.60;99.90;;;;;;5043065;28;20053;-62
2023/10/13 03:18:39;;;;;;;10.25;5.38;;;15.60;99.90;;;;;;5041573;28;20562;-62
2023/10/13 03:21:07;;;;;;;7.43;4.55;;;15.60;99.90;;;;;;5045574;28;20463;-62
2023/10/13 03:23:45;;;;;;;12.93;5.15;;;15.70;99.90;;;;;;5045860;28;20048;-62
2023/10/13 03:26:11;;;;;;;14.20;5.10;;;15.70;99.90;;;;;;5045453;28;20113;-61
2023/10/13 03:28:38;;;;;;;;;;;15.70;99.90;;;;;;5050634;28;20111;-63
2023/10/13 03:31:04;;;;;;;11.23;5.95;;;15.70;99.90;;;;;;5046998;28;20366;-62
2023/10/13 03:33:32;;;;;;;;;;;15.70;99.90;;;;;;5049108;28;20075;-63
2023/10/13 03:36:05;;;;;;;12.32;5.22;;;15.70;99.90;;;;;;5046881;28;19927;-62
2023/10/13 03:38:36;;;;;;;12.40;5.80;;;15.70;99.90;;;;;;5048826;28;20045;-62
2023/10/13 03:41:12;;;;;;;17.10;6.10;;;15.70;99.90;;;;;;5046678;28;20071;-62
2023/10/13 03:43:51;;;;;;;10.07;5.75;;;15.70;99.90;;;;;;5047263;28;20447;-63
2023/10/13 03:46:21;;;;;;;11.35;5.90;;;15.70;99.90;;;;;;5044998;28;20068;-63
2023/10/13 03:48:54;;;;;;;17.15;6.68;;;15.70;99.90;;;;;;5045645;28;20037;-63
2023/10/13 03:51:20;;;;;;;11.05;5.28;;;15.80;99.90;;;;;;5047478;28;20069;-62
2023/10/13 03:53:54;;;;;;;;;;;15.80;99.90;;;;;;5049927;28;20493;-62
2023/10/13 03:56:27;;;;;;;8.73;4.90;;;15.80;99.90;;;;;;5048739;28;19920;-63
2023/10/13 03:59:00;;;;;;;8.38;4.90;;;15.80;99.90;;;;;;5051281;28;20094;-63
2023/10/13 04:01:41;;;;;;;16.70;5.45;;;15.80;99.90;;;;;;5045780;28;20049;-63
2023/10/13 04:04:11;;;;;;;16.08;5.28;;;15.80;99.90;;;;;;5044157;28;20069;-63
2023/10/13 04:17:28;;;;;;;10.40;5.25;;;15.80;99.90;;;;;;5049482;28;20037;-63
2023/10/13 04:36:13;;;;;;;10.93;5.07;;;15.90;99.90;;;;;;5046375;28;20045;-63
2023/10/13 04:52:01;;;;;;;7.90;4.57;;;15.90;99.90;;;;;;5048962;28;20047;-62
2023/10/13 04:57:23;;;;;;;5.72;4.25;;;16.00;99.90;;;;;;5048254;28;20041;-63
2023/10/13 05:46:49;;;;;;;6.80;3.60;;;16.30;99.90;;;;;;5046526;28;20512;-63
2023/10/13 05:51:47;;;;;;;8.43;3.78;;;16.30;99.90;;;;;;5045093;28;20124;-64
2023/10/13 06:30:04;;;;;;;8.95;3.80;;;16.20;99.90;;;;;;5039209;28;20053;-61
2023/10/13 06:32:30;;;;;;;7.47;3.13;;;16.20;99.90;;;;;;5043926;28;20814;-61
2023/10/13 06:35:07;;;;;;;13.52;3.63;;;16.20;99.90;;;;;;5048054;28;20037;-63
2023/10/13 06:37:33;;;;;;;;;;;16.20;99.90;;;;;;5037513;28;20037;-62
2023/10/13 06:40:06;;;;;;;4.72;2.63;;;16.30;99.90;;;;;;5045220;28;19917;-62
2023/10/13 06:42:34;;;;;;;11.55;3.03;;;16.30;99.90;;;;;;5040028;28;20390;-62
2023/10/13 06:45:20;;;;;;;12.02;3.22;;;16.30;99.90;;;;;;5044622;28;20147;-62
2023/10/13 06:47:46;;;;;;;9.15;3.50;;;16.30;99.90;;;;;;5045147;28;20404;-62
2023/10/13 06:50:15;;;;;;;4.75;2.17;;;16.30;99.90;;;;;;5047939;28;20472;-61
2023/10/13 06:52:46;;;;;;;8.02;3.13;;;16.30;99.90;;;;;;5044648;28;20041;-61
2023/10/13 06:55:23;;;;;;;11.15;2.35;;;16.30;99.90;;;;;;5047606;28;20159;-62
2023/10/13 06:57:51;;;;;;;6.07;2.97;;;16.30;99.90;;;;;;5044324;28;20041;-61
2023/10/13 07:00:33;;;;;;;14.27;4.30;;;16.40;99.90;;;;;;5044809;28;20061;-64
2023/10/13 07:03:06;;;;;;;8.65;2.78;;;16.30;99.90;;;;;;5037785;28;20582;-63
2023/10/13 07:05:39;;;;;;;7.60;3.22;;;16.30;99.90;;;;;;5046398;28;20459;-63
2023/10/13 07:08:08;;;;;;;9.13;3.50;;;16.40;99.90;;;;;;5044648;28;20068;-64
2023/10/13 07:10:48;;;;;;;7.32;3.58;;;16.40;99.90;;;;;;5045657;28;20041;-64
2023/10/13 07:13:14;;;;;;;14.82;3.30;;;16.40;99.90;;;;;;5042301;28;20041;-65
2023/10/13 07:15:44;;;;;;;;;;;16.40;99.90;;;;;;5046519;28;20048;-64
2023/10/13 07:18:19;;;;;;;10.15;3.17;;;16.40;99.90;;;;;;5043741;28;19983;-63
2023/10/13 07:20:45;;;;;;;20.65;4.90;;;16.40;99.90;;;;;;5047709;28;20133;-64
2023/10/13 07:23:17;;;;;;;;;;;16.40;99.90;;;;;;5044890;28;20120;-64
2023/10/13 07:25:51;;;;;;;12.55;4.15;;;16.40;99.90;;;;;;5044157;28;20402;-65
2023/10/13 07:28:17;;;;;;;15.70;4.50;;;16.50;99.90;;;;;;5044645;28;20044;-62
2023/10/13 07:30:49;;;;;;;;;;;16.50;99.90;;;;;;5050379;28;20040;-63
2023/10/13 07:33:19;;;;;;;16.55;5.28;;;16.40;99.90;;;;;;5048586;28;20387;-63
2023/10/13 07:35:51;;;;;;;15.05;4.22;;;16.40;99.90;;;;;;5051137;28;20060;-62
2023/10/13 07:38:21;;;;;;;18.27;5.00;;;16.40;99.90;;;;;;5047590;28;20041;-63
2023/10/13 07:40:52;;;;;;;11.90;4.22;;;16.40;99.90;;;;;;5051225;28;20099;-63
2023/10/13 07:43:21;;;;;;;14.18;4.85;;;16.40;99.90;;;;;;5048314;28;20046;-63
2023/10/13 07:45:51;;;;;;;20.00;5.82;;;16.40;99.90;;;;;;5050500;28;20482;-63
2023/10/13 07:48:20;;;;;;;16.17;5.05;;;16.40;99.90;;;;;;5046720;28;20053;-63
2023/10/13 07:51:26;;;;;;;14.15;4.35;;;16.40;99.90;;;;;;5050441;28;20037;-63
2023/10/13 07:53:52;;;;;;;19.45;5.45;;;16.50;99.90;;;;;;5047128;28;20051;-63
2023/10/13 07:56:19;;;;;;;19.88;6.10;;;16.50;99.90;;;;;;5048213;28;20076;-63
2023/10/13 07:59:00;;;;;;;14.60;5.07;;;16.50;99.90;;;;;;5050855;28;20040;-63
2023/10/13 08:01:26;;;;;;;24.60;6.15;;;16.50;99.90;;;;;;5050075;28;20132;-64
2023/10/13 08:04:11;;;;;;;18.73;5.07;;;16.60;99.90;;;;;;5050318;28;20044;-64
2023/10/13 08:06:39;;;;;;;22.58;6.10;;;16.60;99.90;;;;;;5045087;28;20431;-63
2023/10/13 08:09:09;;;;;;;25.17;5.70;;;16.60;99.90;;;;;;5049687;28;20033;-65
2023/10/13 08:11:38;;;;;;;18.95;5.57;;;16.60;99.90;;;;;;5040946;28;20064;-64
2023/10/13 08:16:47;;;;;;;13.98;5.60;;;16.70;99.90;;;;;;5045426;28;21241;-64
2023/10/13 08:19:17;;;;;;;25.77;6.70;;;16.70;99.90;;;;;;5050112;28;20124;-64
2023/10/13 08:21:51;;;;;;;21.15;5.65;;;16.80;99.90;;;;;;5046805;28;20124;-63
2023/10/13 08:37:47;;;;;;;12.50;5.78;;;17.00;99.90;;;;;;5047427;28;20048;-64
2023/10/13 08:40:20;;;;;;;17.95;5.07;;;17.00;99.90;;;;;;5049542;28;20121;-63
2023/10/13 08:53:26;;;;;;;21.50;5.28;;;17.30;99.90;;;;;;5046773;28;20041;-63
2023/10/13 08:58:59;;;;;;;17.98;4.80;;;17.40;99.90;;;;;;5049666;28;19947;-63
2023/10/13 09:01:14;;;;;;;24.25;5.72;;;17.40;99.90;;;;;;5041540;28;20056;-63
2023/10/13 09:03:42;;;;;;;15.40;5.45;;;17.40;99.90;;;;;;5048583;28;20087;-63
2023/10/13 09:06:19;;;;;;;13.60;5.22;;;17.40;99.90;;;;;;5047707;28;20044;-63
2023/10/13 09:11:50;;;;;;;15.70;5.43;;;17.50;99.90;;;;;;5045638;28;20064;-64
2023/10/13 09:14:33;;;;;;;19.27;5.97;;;17.60;99.90;;;;;;5048989;28;20053;-63
2023/10/13 09:19:48;;;;;;;15.57;5.10;;;17.60;99.90;;;;;;5047836;28;20068;-63
2023/10/13 09:22:27;;;;;;;20.75;5.93;;;17.70;99.90;;;;;;5040798;28;20607;-63
2023/10/13 09:24:58;;;;;;;22.08;5.60;;;17.70;99.90;;;;;;5040040;28;20055;-66
2023/10/13 09:27:33;;;;;;;18.38;5.30;;;17.80;99.90;;;;;;5044664;28;20075;-64
2023/10/13 09:30:18;;;;;;;16.05;5.40;;;17.80;99.90;;;;;;5041373;28;20048;-64
2023/10/13 09:32:50;;;;;;;25.73;5.57;;;17.90;99.90;;;;;;5042617;28;20053;-60
2023/10/13 09:35:23;;;;;;;19.25;5.07;;;17.90;99.90;;;;;;5048690;28;20071;-61
2023/10/13 09:37:50;;;;;;;15.73;5.90;;;18.00;99.90;;;;;;5043431;28;20106;-65
2023/10/13 09:43:04;;;;;;;17.85;6.00;;;18.00;99.90;;;;;;5042712;28;20037;-60
2023/10/13 09:45:56;;;;;;;16.73;5.75;;;18.20;99.90;;;;;;5042099;28;20051;-62
2023/10/13 09:48:31;;;;;;;19.60;5.72;;;18.40;99.90;;;;;;5045683;28;20037;-63
2023/10/13 09:51:06;;;;;;;21.27;5.88;;;18.50;99.90;;;;;;5044764;28;20047;-64
2023/10/13 09:53:34;;;;;;;19.05;5.32;;;18.40;99.90;;;;;;5045513;28;20037;-62
2023/10/13 09:56:13;;;;;;;19.13;5.78;;;18.70;99.90;;;;;;5045163;28;20045;-64
2023/10/13 09:58:56;;;;;;;12.82;4.65;;;18.90;99.90;;;;;;5046856;28;20036;-61
2023/10/13 10:01:33;;;;;;;18.23;5.05;;;19.10;99.90;;;;;;5044246;28;20076;-62
2023/10/13 10:04:29;;;;;;;12.50;4.85;;;19.30;99.90;;;;;;5043171;28;20037;-60
2023/10/13 10:06:59;;;;;;;20.73;6.10;;;19.40;99.90;;;;;;5040885;28;20055;-63
2023/10/13 10:09:39;;;;;;;27.88;5.43;;;19.60;99.90;;;;;;5045828;28;20118;-63
2023/10/13 10:12:10;;;;;;;17.00;5.18;;;19.70;99.90;;;;;;5042933;28;20041;-62
2023/10/13 10:15:13;;;;;;;16.55;5.68;;;19.50;99.90;;;;;;5048565;28;20087;-62
2023/10/13 10:17:41;;;;;;;14.10;5.65;;;19.40;99.90;;;;;;5036026;28;20060;-63
2023/10/13 10:20:20;;;;;;;17.95;5.97;;;19.30;99.90;;;;;;5042765;28;20128;-64
2023/10/13 10:22:59;;;;;;;22.23;5.93;;;19.10;99.90;;;;;;5044288;28;20044;-60
2023/10/13 10:25:35;;;;;;;20.33;6.10;;;19.10;99.90;;;;;;5048155;28;20127;-64
2023/10/13 10:28:06;;;;;;;19.43;5.93;;;19.00;99.90;;;;;;5044310;28;20546;-64
2023/10/13 10:30:38;;;;;;;13.25;5.03;;;19.00;99.90;;;;;;5046111;28;20776;-63
2023/10/13 10:33:18;;;;;;;10.25;4.50;;;18.90;99.90;;;;;;5043015;28;20083;-63
2023/10/13 10:35:58;;;;;;;17.00;5.78;;;18.90;99.90;;;;;;5047941;28;20076;-63
2023/10/13 10:38:24;;;;;;;22.40;6.57;;;18.90;99.90;;;;;;5047086;28;20499;-63
2023/10/13 10:41:00;;;;;;;20.73;5.65;;;19.00;99.90;;;;;;5048219;28;20048;-64
2023/10/13 10:43:45;;;;;;;12.50;5.43;;;19.00;99.90;;;;;;5046137;28;20083;-63
2023/10/13 10:46:40;;;;;;;11.43;5.50;;;19.10;99.90;;;;;;5037943;28;20548;-63
2023/10/13 10:49:08;;;;;;;19.73;6.07;;;19.10;99.90;;;;;;5040745;28;20045;-64
2023/10/13 10:51:43;;;;;;;18.77;5.80;;;19.10;99.90;;;;;;5046314;28;20497;-63
2023/10/13 10:54:18;;;;;;;16.17;5.95;;;19.30;99.90;;;;;;5044803;28;20037;-63
2023/10/13 10:56:52;;;;;;;19.77;5.82;;;19.40;99.90;;;;;;5045881;28;20075;-63
2023/10/13 10:59:19;;;;;;;19.98;5.18;;;19.60;99.90;;;;;;5048196;28;20059;-63
2023/10/13 11:01:52;;;;;;;18.27;6.75;;;19.80;99.90;;;;;;5044181;28;20049;-64
2023/10/13 11:04:18;;;;;;;16.13;6.30;;;19.90;99.90;;;;;;5047180;28;20033;-63
2023/10/13 11:06:54;;;;;;;19.13;5.85;;;20.00;99.90;;;;;;5045573;28;20102;-65
2023/10/13 11:12:26;;;;;;;18.90;6.03;;;19.80;99.90;;;;;;5045797;28;20120;-63
2023/10/13 11:15:22;;;;;;;14.13;6.03;;;19.90;99.90;;;;;;5043951;28;20041;-63
2023/10/13 11:17:54;;;;;;;18.30;5.25;;;20.10;99.90;;;;;;5045246;28;20041;-63
2023/10/13 11:20:33;;;;;;;14.38;5.93;;;20.10;99.90;;;;;;5047682;28;20052;-63
2023/10/13 11:22:59;;;;;;;14.88;6.07;;;20.00;99.90;;;;;;5043867;28;20048;-63
2023/10/13 11:25:29;;;;;;;13.68;6.25;;;19.90;99.90;;;;;;5047709;28;20056;-63
2023/10/13 11:28:09;;;;;;;15.95;5.75;;;19.90;99.90;;;;;;5043178;28;20327;-62
2023/10/13 11:33:08;;;;;;;17.33;5.78;;;20.00;99.90;;;;;;5044637;28;20112;-63
2023/10/13 11:38:26;;;;;;;15.23;5.90;;;20.20;99.90;;;;;;5044511;28;20040;-62
2023/10/13 11:46:14;;;;;;;23.17;5.60;;;20.20;99.90;;;;;;5043802;28;20048;-62
2023/10/13 11:48:41;;;;;;;19.73;5.30;;;20.20;99.90;;;;;;5035690;28;20130;-62
2023/10/13 11:51:23;;;;;;;22.95;5.72;;;20.30;99.90;;;;;;5040028;28;20044;-62
2023/10/13 11:53:53;;;;;;;23.08;5.90;;;20.30;99.90;;;;;;5047422;28;20040;-62
2023/10/13 11:56:21;;;;;;;19.13;5.53;;;20.30;99.90;;;;;;5044824;28;20607;-62
2023/10/13 11:58:50;;;;;;;24.70;5.78;;;20.30;99.90;;;;;;5046584;28;20069;-62
2023/10/13 12:11:45;;;;;;;16.10;5.60;;;20.50;99.90;;;;;;5043582;28;20037;-62
2023/10/13 12:14:17;;;;;;;15.13;5.30;;;20.50;99.90;;;;;;5048234;28;20758;-62
2023/10/13 12:16:52;;;;;;;16.45;4.60;;;20.70;99.90;;;;;;5046766;28;20037;-63
2023/10/13 12:19:23;;;;;;;17.02;5.38;;;20.70;99.90;;;;;;5043755;28;20497;-63
2023/10/13 12:21:49;;;;;;;20.27;5.55;;;20.70;99.90;;;;;;5047644;28;20033;-63
2023/10/13 12:27:19;;;;;;;15.55;5.15;;;20.60;99.90;;;;;;5040483;28;20045;-62
2023/10/13 12:29:49;;;;;;;22.58;5.78;;;20.60;99.90;;;;;;5039325;28;20049;-60
2023/10/13 12:32:20;;;;;;;21.40;5.57;;;20.60;99.90;;;;;;5041950;28;20052;-61
2023/10/13 12:51:20;;;;;;;19.63;5.10;;;20.90;99.90;;;;;;5047055;28;20038;-63
2023/10/13 12:53:52;;;;;;;29.80;6.20;;;20.90;99.90;;;;;;5048990;28;20048;-63
2023/10/13 12:56:28;;;;;;;21.50;6.60;;;20.90;99.90;;;;;;5046363;28;20049;-63
2023/10/13 12:58:55;;;;;;;21.20;5.82;;;20.80;99.90;;;;;;5044909;28;20040;-63
2023/10/13 13:01:22;;;;;;;17.25;5.82;;;20.80;99.90;;;;;;5046337;28;20553;-63
2023/10/13 13:03:49;;;;;;;22.27;5.32;;;20.70;99.90;;;;;;5045381;28;20033;-63
2023/10/13 13:06:25;;;;;;;18.55;5.78;;;20.70;99.90;;;;;;5049901;28;20479;-63
2023/10/13 13:08:55;;;;;;;21.88;5.88;;;20.70;99.90;;;;;;5049796;28;20040;-62
2023/10/13 13:11:22;;;;;;;17.35;5.32;;;20.70;99.90;;;;;;5044041;28;20045;-60
2023/10/13 13:13:48;;;;;;;18.83;5.15;;;20.70;99.90;;;;;;5045801;28;20552;-61
2023/10/13 13:16:14;;;;;;;15.68;5.25;;;20.80;99.90;;;;;;5047496;28;20128;-62
2023/10/13 13:18:40;;;;;;;16.25;4.63;;;20.90;99.90;;;;;;5042536;28;20045;-65
2023/10/13 13:21:06;;;;;;;19.02;5.22;;;21.00;99.90;;;;;;5045734;28;20072;-65
2023/10/13 13:23:34;;;;;;;21.67;6.03;;;21.00;99.90;;;;;;5041972;28;20071;-67
2023/10/13 13:26:00;;;;;;;17.73;5.25;;;21.00;99.90;;;;;;5045872;28;20053;-68
2023/10/13 13:28:28;;;;;;;18.98;5.95;;;21.10;99.90;;;;;;5048522;28;20076;-66
2023/10/13 13:30:55;;;;;;;16.25;4.95;;;21.10;99.90;;;;;;5046918;28;20132;-65
2023/10/13 13:33:25;;;;;;;14.45;4.95;;;21.10;99.90;;;;;;5045855;28;20041;-65
2023/10/13 13:35:55;;;;;;;18.30;4.47;;;21.10;99.90;;;;;;5045477;28;20100;-65
2023/10/13 13:38:27;;;;;;;22.75;5.43;;;21.00;99.90;;;;;;5046969;28;20124;-64
2023/10/13 13:40:56;;;;;;;14.15;5.25;;;21.00;99.90;;;;;;5051662;28;20503;-64
2023/10/13 13:43:37;;;;;;;24.40;4.80;;;20.90;99.90;;;;;;5037682;28;20040;-65
2023/10/13 13:46:03;;;;;;;28.67;5.05;;;20.90;99.90;;;;;;5044404;28;20114;-62
2023/10/13 13:48:30;;;;;;;14.95;5.05;;;20.90;99.90;;;;;;5047261;28;20087;-63
2023/10/13 13:51:04;;;;;;;19.75;5.70;;;20.90;99.90;;;;;;5049682;28;20053;-62
2023/10/13 13:53:32;;;;;;;25.27;4.78;;;20.80;99.90;;;;;;5047324;28;20072;-62
2023/10/13 13:56:02;;;;;;;21.80;5.93;;;20.80;99.90;;;;;;5048608;28;20071;-63
2023/10/13 13:58:28;;;;;;;22.95;5.60;;;20.80;99.90;;;;;;5047817;28;20404;-62
2023/10/13 14:01:00;;;;;;;18.75;5.25;;;20.80;99.90;;;;;;5047944;28;20041;-65
2023/10/13 14:03:32;;;;;;;16.23;4.88;;;20.80;99.90;;;;;;5046925;28;20041;-64
2023/10/13 14:05:58;;;;;;;20.45;5.45;;;20.80;99.90;;;;;;5049381;28;20040;-63
2023/10/13 14:08:25;;;;;;;23.60;5.57;;;20.80;99.90;;;;;;5047999;28;20045;-64
2023/10/13 14:16:37;;;;;;;18.35;5.05;;;20.80;99.90;;;;;;5018581;28;20049;-65
2023/10/13 14:19:07;;;;;;;14.00;5.75;;;20.80;99.90;;;;;;5047878;28;20777;-67
2023/10/13 14:21:34;;;;;;;15.77;5.10;;;20.80;99.90;;;;;;5045373;28;20043;-65
2023/10/13 14:24:01;;;;;;;15.10;5.13;;;20.80;99.90;;;;;;5048249;28;20413;-63
2023/10/13 14:26:27;;;;;;;17.33;5.45;;;20.80;99.90;;;;;;5044562;28;20041;-67
2023/10/13 14:29:03;;;;;;;20.58;5.78;;;20.80;99.90;;;;;;5045956;28;20528;-66
2023/10/13 14:31:30;;;;;;;22.52;6.00;;;20.80;99.90;;;;;;5043775;28;20045;-66
2023/10/13 14:33:59;;;;;;;14.35;4.57;;;20.70;99.90;;;;;;5048316;28;20043;-67
2023/10/13 14:36:28;;;;;;;19.67;4.82;;;20.60;99.90;;;;;;5041516;28;20054;-68
2023/10/13 14:38:55;;;;;;;18.73;5.40;;;20.60;99.90;;;;;;5045568;28;20126;-66
2023/10/13 14:41:21;;;;;;;25.45;6.70;;;20.60;99.90;;;;;;5044782;28;20045;-64
2023/10/13 14:43:47;;;;;;;19.50;5.90;;;20.60;99.90;;;;;;5046378;28;20090;-66
2023/10/13 14:46:23;;;;;;;15.95;5.47;;;20.60;99.90;;;;;;5042101;28;20048;-65
2023/10/13 14:48:52;;;;;;;30.52;5.55;;;20.60;99.90;;;;;;5046038;28;20029;-65
2023/10/13 14:51:18;;;;;;;14.90;4.47;;;20.50;99.90;;;;;;5046586;28;20117;-68
2023/10/13 14:53:45;;;;;;;17.10;7.85;;;20.50;99.90;;;;;;5047501;28;20040;-64
2023/10/13 14:56:15;;;;;;;23.55;7.47;;;20.50;99.90;;;;;;5045717;28;20041;-64
2023/10/13 14:58:44;;;;;;;23.00;5.00;;;20.50;99.90;;;;;;5045047;28;20045;-64
2023/10/13 15:01:15;;;;;;;16.60;5.38;;;20.40;99.90;;;;;;5045449;28;20049;-63
2023/10/13 15:03:45;;;;;;;18.45;5.57;;;20.40;99.90;;;;;;5046604;28;20036;-63
2023/10/13 15:06:29;;;;;;;15.23;5.35;;;20.30;99.90;;;;;;5040825;28;20122;-63
2023/10/13 15:08:56;;;;;;;17.77;5.88;;;20.20;99.90;;;;;;5039822;28;20033;-63
2023/10/13 15:11:40;;;;;;;18.85;5.93;;;20.20;99.90;;;;;;5043924;28;20041;-63
2023/10/13 15:14:09;;;;;;;20.67;4.97;;;20.00;99.90;;;;;;5042141;28;20307;-63
2023/10/13 15:16:35;;;;;;;20.83;5.82;;;20.00;99.90;;;;;;5043009;28;20099;-63
2023/10/13 15:19:02;;;;;;;24.45;5.63;;;20.00;99.90;;;;;;5047787;28;20042;-63
2023/10/13 15:21:34;;;;;;;23.40;4.97;;;19.90;99.90;;;;;;5043057;28;20123;-63
2023/10/13 15:24:04;;;;;;;18.67;5.22;;;19.90;99.90;;;;;;5047341;28;20048;-64
2023/10/13 15:26:38;;;;;;;22.85;5.65;;;19.90;99.90;;;;;;5042588;28;20212;-64
2023/10/13 15:29:08;;;;;;;25.20;5.65;;;19.90;99.90;;;;;;5042940;28;20163;-63
2023/10/13 15:31:41;;;;;;;18.42;5.05;;;19.80;99.90;;;;;;5041925;28;20061;-63
2023/10/13 15:34:15;;;;;;;28.85;5.70;;;19.80;99.90;;;;;;5042154;28;20496;-63
2023/10/13 15:36:45;;;;;;;22.48;4.82;;;19.80;99.90;;;;;;5044888;28;20054;-67
2023/10/13 15:39:11;;;;;;;25.77;6.45;;;19.70;99.90;;;;;;5043824;28;20052;-64
2023/10/13 15:41:41;;;;;;;17.73;6.32;;;19.70;99.90;;;;;;5041128;28;20577;-63
2023/10/13 15:44:20;;;;;;;28.55;5.72;;;19.70;99.90;;;;;;5044959;28;20098;-63
2023/10/13 15:46:49;;;;;;;23.88;6.47;;;19.70;99.90;;;;;;5038478;28;20083;-64
2023/10/13 15:49:15;;;;;;;16.55;5.97;;;19.70;99.90;;;;;;5046453;28;20043;-64
2023/10/13 15:51:42;;;;;;;21.48;5.25;;;19.70;99.90;;;;;;5045996;28;20489;-63
2023/10/13 15:54:16;;;;;;;21.40;6.13;;;19.70;99.90;;;;;;5050348;28;20045;-64
2023/10/13 15:56:43;;;;;;;23.30;6.45;;;19.60;99.90;;;;;;5046375;28;20505;-64
2023/10/13 15:59:12;;;;;;;29.90;6.80;;;19.60;99.90;;;;;;5043672;28;20037;-61
2023/10/13 16:01:39;;;;;;;27.75;8.02;;;19.60;99.90;;;;;;5043136;28;20408;-62
2023/10/13 16:04:11;;;;;;;19.15;6.55;;;19.60;99.90;;;;;;5046564;28;20099;-63
2023/10/13 16:06:51;;;;;;;;;;;19.60;99.90;;;;;;5048891;28;20067;-63
2023/10/13 16:09:33;;;;;;;19.75;5.10;;;19.60;99.90;;;;;;5047618;28;19927;-63
2023/10/13 16:12:02;;;;;;;25.73;6.10;;;19.60;99.90;;;;;;5045917;28;20136;-63
2023/10/13 16:14:27;;;;;;;14.85;5.10;;;19.60;99.90;;;;;;5041860;28;20051;-63
2023/10/13 16:16:53;;;;;;;;;;;19.50;99.90;;;;;;5047303;28;20041;-63
2023/10/13 16:19:34;;;;;;;27.15;5.82;;;19.50;99.90;;;;;;5050109;28;19921;-64
2023/10/13 16:22:14;;;;;;;20.70;5.75;;;19.50;99.90;;;;;;5052004;28;20037;-65
2023/10/13 16:24:57;;;;;;;16.08;5.75;;;19.50;99.90;;;;;;5049431;28;20504;-67
2023/10/13 16:27:25;;;;;;;23.85;5.93;;;19.50;99.90;;;;;;5046763;28;20171;-65
2023/10/13 16:29:54;;;;;;;28.58;5.90;;;19.50;99.90;;;;;;5046127;28;20056;-65
2023/10/13 16:32:19;;;;;;;22.45;6.28;;;19.50;99.90;;;;;;5045017;28;20045;-65
2023/10/13 16:34:45;;;;;;;;;;;19.50;99.90;;;;;;5044251;28;20047;-65
2023/10/13 16:37:11;;;;;;;20.33;5.95;;;19.50;99.90;;;;;;5040552;28;19924;-65
2023/10/13 16:39:39;;;;;;;20.33;5.75;;;19.50;99.90;;;;;;5048005;28;20044;-66
2023/10/13 16:42:07;;;;;;;14.75;5.28;;;19.40;99.90;;;;;;5049004;28;20029;-67
2023/10/13 16:44:38;;;;;;;18.48;6.15;;;19.40;99.90;;;;;;5048607;28;20544;-65
2023/10/13 16:47:04;;;;;;;22.75;5.68;;;19.40;99.90;;;;;;5037962;28;20076;-65